sensor_id;sensor_type;location;lat;lon;timestamp;temperature;humidity
56162;DHT22;42045;52.986;6.014;2023-07-31T00:02:01;16.20;99.90
56162;DHT22;42045;52.986;6.014;2023-07-31T00:04:26;16.10;99.90
56162;DHT22;42045;52.986;6.014;2023-07-31T00:06:52;16.10;99.90
56162;DHT22;42045;52.986;6.014;2023-07-31T00:09:18;16.00;99.90
56162;DHT22;42045;52.986;6.014;2023-07-31T00:11:43;16.00;99.90
56162;DHT22;42045;52.986;6.014;2023-07-31T00:14:09;15.90;99.90
56162;DHT22;42045;52.986;6.014;2023-07-31T00:16:35;15.90;99.90
56162;DHT22;42045;52.986;6.014;2023-07-31T00:19:00;15.90;99.90
56162;DHT22;42045;52.986;6.014;2023-07-31T00:21:26;15.90;99.90
56162;DHT22;42045;52.986;6.014;2023-07-31T00:23:52;15.90;99.90
56162;DHT22;42045;52.986;6.014;2023-07-31T00:26:17;15.90;99.90
56162;DHT22;42045;52.986;6.014;2023-07-31T00:28:43;15.90;99.90
56162;DHT22;42045;52.986;6.014;2023-07-31T00:31:09;15.90;99.90
56162;DHT22;42045;52.986;6.014;2023-07-31T00:33:35;15.80;99.90
56162;DHT22;42045;52.986;6.014;2023-07-31T00:36:02;15.80;99.90
56162;DHT22;42045;52.986;6.014;2023-07-31T00:38:27;15.80;99.90
56162;DHT22;42045;52.986;6.014;2023-07-31T00:40:53;15.80;99.90
56162;DHT22;42045;52.986;6.014;2023-07-31T00:43:18;16.00;99.90
56162;DHT22;42045;52.986;6.014;2023-07-31T00:45:44;16.00;99.90
56162;DHT22;42045;52.986;6.014;2023-07-31T00:48:10;15.90;99.90
56162;DHT22;42045;52.986;6.014;2023-07-31T00:50:37;15.90;99.90
56162;DHT22;42045;52.986;6.014;2023-07-31T00:53:03;16.00;99.90
56162;DHT22;42045;52.986;6.014;2023-07-31T00:55:30;16.00;99.90
56162;DHT22;42045;52.986;6.014;2023-07-31T00:57:56;15.90;99.90
56162;DHT22;42045;52.986;6.014;2023-07-31T01:00:22;15.90;99.90
56162;DHT22;42045;52.986;6.014;2023-07-31T01:02:49;16.10;99.90
56162;DHT22;42045;52.986;6.014;2023-07-31T01:05:17;16.00;99.90
56162;DHT22;42045;52.986;6.014;2023-07-31T01:10:23;16.00;99.90
56162;DHT22;42045;52.986;6.014;2023-07-31T01:12:51;16.10;99.90
56162;DHT22;42045;52.986;6.014;2023-07-31T01:15:18;16.20;99.90
56162;DHT22;42045;52.986;6.014;2023-07-31T01:17:44;16.10;99.90
56162;DHT22;42045;52.986;6.014;2023-07-31T01:20:20;16.10;99.90
56162;DHT22;42045;52.986;6.014;2023-07-31T01:28:07;16.10;99.90
56162;DHT22;42045;52.986;6.014;2023-07-31T01:30:40;16.10;99.90
56162;DHT22;42045;52.986;6.014;2023-07-31T01:33:06;16.10;99.90
56162;DHT22;42045;52.986;6.014;2023-07-31T01:35:37;16.10;99.90
56162;DHT22;42045;52.986;6.014;2023-07-31T01:38:04;16.20;99.90
56162;DHT22;42045;52.986;6.014;2023-07-31T01:40:30;16.20;99.90
56162;DHT22;42045;52.986;6.014;2023-07-31T01:42:55;16.20;99.90
56162;DHT22;42045;52.986;6.014;2023-07-31T01:45:21;16.10;99.90
56162;DHT22;42045;52.986;6.014;2023-07-31T01:47:47;16.20;99.90
56162;DHT22;42045;52.986;6.014;2023-07-31T01:50:12;16.10;99.90
56162;DHT22;42045;52.986;6.014;2023-07-31T01:52:38;16.20;99.90
56162;DHT22;42045;52.986;6.014;2023-07-31T01:55:04;16.20;99.90
56162;DHT22;42045;52.986;6.014;2023-07-31T01:57:30;16.10;99.90
56162;DHT22;42045;52.986;6.014;2023-07-31T01:59:55;16.10;99.90
56162;DHT22;42045;52.986;6.014;2023-07-31T02:02:22;16.10;99.90
56162;DHT22;42045;52.986;6.014;2023-07-31T02:04:51;16.10;99.90
56162;DHT22;42045;52.986;6.014;2023-07-31T02:07:16;16.10;99.90
56162;DHT22;42045;52.986;6.014;2023-07-31T02:09:42;16.10;99.90
56162;DHT22;42045;52.986;6.014;2023-07-31T02:12:08;16.10;99.90
56162;DHT22;42045;52.986;6.014;2023-07-31T02:14:34;16.00;99.90
56162;DHT22;42045;52.986;6.014;2023-07-31T02:17:00;16.20;99.90
56162;DHT22;42045;52.986;6.014;2023-07-31T02:19:26;16.10;99.90
56162;DHT22;42045;52.986;6.014;2023-07-31T02:21:52;16.10;99.90
56162;DHT22;42045;52.986;6.014;2023-07-31T02:24:17;16.20;99.90
56162;DHT22;42045;52.986;6.014;2023-07-31T02:26:43;16.10;99.90
56162;DHT22;42045;52.986;6.014;2023-07-31T02:29:09;16.20;99.90
56162;DHT22;42045;52.986;6.014;2023-07-31T02:31:34;16.20;99.90
56162;DHT22;42045;52.986;6.014;2023-07-31T02:34:00;16.10;99.90
56162;DHT22;42045;52.986;6.014;2023-07-31T02:36:26;16.10;99.90
56162;DHT22;42045;52.986;6.014;2023-07-31T02:38:51;16.10;99.90
56162;DHT22;42045;52.986;6.014;2023-07-31T02:41:17;16.10;99.90
56162;DHT22;42045;52.986;6.014;2023-07-31T02:43:43;16.20;99.90
56162;DHT22;42045;52.986;6.014;2023-07-31T02:46:08;16.20;99.90
56162;DHT22;42045;52.986;6.014;2023-07-31T02:48:34;16.10;99.90
56162;DHT22;42045;52.986;6.014;2023-07-31T02:50:59;16.10;99.90
56162;DHT22;42045;52.986;6.014;2023-07-31T02:53:25;16.20;99.90
56162;DHT22;42045;52.986;6.014;2023-07-31T02:55:51;16.00;99.90
56162;DHT22;42045;52.986;6.014;2023-07-31T02:58:16;16.00;99.90
56162;DHT22;42045;52.986;6.014;2023-07-31T03:00:45;16.10;99.90
56162;DHT22;42045;52.986;6.014;2023-07-31T03:03:11;16.10;99.90
56162;DHT22;42045;52.986;6.014;2023-07-31T03:05:37;16.00;99.90
56162;DHT22;42045;52.986;6.014;2023-07-31T03:08:03;15.80;99.90
56162;DHT22;42045;52.986;6.014;2023-07-31T03:10:29;15.90;99.90
56162;DHT22;42045;52.986;6.014;2023-07-31T03:12:55;15.80;99.90
56162;DHT22;42045;52.986;6.014;2023-07-31T03:15:20;15.70;99.90
56162;DHT22;42045;52.986;6.014;2023-07-31T03:17:46;15.70;99.90
56162;DHT22;42045;52.986;6.014;2023-07-31T03:20:12;15.80;99.90
56162;DHT22;42045;52.986;6.014;2023-07-31T03:22:37;15.80;99.90
56162;DHT22;42045;52.986;6.014;2023-07-31T03:25:03;15.80;99.90
56162;DHT22;42045;52.986;6.014;2023-07-31T03:27:29;15.80;99.90
56162;DHT22;42045;52.986;6.014;2023-07-31T03:29:55;15.70;99.90
56162;DHT22;42045;52.986;6.014;2023-07-31T03:32:21;15.70;99.90
56162;DHT22;42045;52.986;6.014;2023-07-31T03:34:46;15.80;99.90
56162;DHT22;42045;52.986;6.014;2023-07-31T03:37:12;15.70;99.90
56162;DHT22;42045;52.986;6.014;2023-07-31T03:39:38;15.70;99.90
56162;DHT22;42045;52.986;6.014;2023-07-31T03:42:04;15.80;99.90
56162;DHT22;42045;52.986;6.014;2023-07-31T03:44:29;15.80;99.90
56162;DHT22;42045;52.986;6.014;2023-07-31T03:46:55;15.80;99.90
56162;DHT22;42045;52.986;6.014;2023-07-31T03:49:21;15.80;99.90
56162;DHT22;42045;52.986;6.014;2023-07-31T03:51:46;15.80;99.90
56162;DHT22;42045;52.986;6.014;2023-07-31T03:54:12;15.90;99.90
56162;DHT22;42045;52.986;6.014;2023-07-31T03:56:39;15.80;99.90
56162;DHT22;42045;52.986;6.014;2023-07-31T03:59:04;15.90;99.90
56162;DHT22;42045;52.986;6.014;2023-07-31T04:01:30;15.80;99.90
56162;DHT22;42045;52.986;6.014;2023-07-31T04:03:56;15.90;99.90
56162;DHT22;42045;52.986;6.014;2023-07-31T04:06:21;15.90;99.90
56162;DHT22;42045;52.986;6.014;2023-07-31T04:08:47;15.80;99.90
56162;DHT22;42045;52.986;6.014;2023-07-31T04:11:13;15.80;99.90
56162;DHT22;42045;52.986;6.014;2023-07-31T04:13:38;15.80;99.90
56162;DHT22;42045;52.986;6.014;2023-07-31T04:16:04;15.90;99.90
56162;DHT22;42045;52.986;6.014;2023-07-31T04:18:31;15.80;99.90
56162;DHT22;42045;52.986;6.014;2023-07-31T04:20:57;16.00;99.90
56162;DHT22;42045;52.986;6.014;2023-07-31T04:23:26;15.90;99.90
56162;DHT22;42045;52.986;6.014;2023-07-31T04:25:52;16.00;99.90
56162;DHT22;42045;52.986;6.014;2023-07-31T04:28:18;16.00;99.90
56162;DHT22;42045;52.986;6.014;2023-07-31T04:30:43;16.00;99.90
56162;DHT22;42045;52.986;6.014;2023-07-31T04:33:09;16.00;99.90
56162;DHT22;42045;52.986;6.014;2023-07-31T04:35:35;16.00;99.90
56162;DHT22;42045;52.986;6.014;2023-07-31T04:38:00;15.90;99.90
56162;DHT22;42045;52.986;6.014;2023-07-31T04:40:26;16.00;99.90
56162;DHT22;42045;52.986;6.014;2023-07-31T04:42:52;16.00;99.90
56162;DHT22;42045;52.986;6.014;2023-07-31T04:45:17;15.90;99.90
56162;DHT22;42045;52.986;6.014;2023-07-31T04:47:43;15.90;99.90
56162;DHT22;42045;52.986;6.014;2023-07-31T04:50:09;15.90;99.90
56162;DHT22;42045;52.986;6.014;2023-07-31T04:52:35;16.00;99.90
56162;DHT22;42045;52.986;6.014;2023-07-31T04:55:01;16.00;99.90
56162;DHT22;42045;52.986;6.014;2023-07-31T04:57:26;15.90;99.90
56162;DHT22;42045;52.986;6.014;2023-07-31T04:59:52;16.00;99.90
56162;DHT22;42045;52.986;6.014;2023-07-31T05:02:18;16.00;99.90
56162;DHT22;42045;52.986;6.014;2023-07-31T05:04:43;16.10;99.90
56162;DHT22;42045;52.986;6.014;2023-07-31T05:07:09;16.00;99.90
56162;DHT22;42045;52.986;6.014;2023-07-31T05:09:34;16.00;99.90
56162;DHT22;42045;52.986;6.014;2023-07-31T05:12:00;16.00;99.90
56162;DHT22;42045;52.986;6.014;2023-07-31T05:14:26;16.20;99.90
56162;DHT22;42045;52.986;6.014;2023-07-31T05:16:52;16.20;99.90
56162;DHT22;42045;52.986;6.014;2023-07-31T05:19:18;16.30;99.90
56162;DHT22;42045;52.986;6.014;2023-07-31T05:21:43;16.30;99.90
56162;DHT22;42045;52.986;6.014;2023-07-31T05:24:10;16.30;99.90
56162;DHT22;42045;52.986;6.014;2023-07-31T05:26:36;16.30;99.90
56162;DHT22;42045;52.986;6.014;2023-07-31T05:29:02;16.30;99.90
56162;DHT22;42045;52.986;6.014;2023-07-31T05:31:27;16.50;99.90
56162;DHT22;42045;52.986;6.014;2023-07-31T05:33:53;16.50;99.90
56162;DHT22;42045;52.986;6.014;2023-07-31T05:36:19;16.60;99.90
56162;DHT22;42045;52.986;6.014;2023-07-31T05:38:44;16.40;99.90
56162;DHT22;42045;52.986;6.014;2023-07-31T05:41:12;16.40;99.90
56162;DHT22;42045;52.986;6.014;2023-07-31T05:43:37;16.60;99.90
56162;DHT22;42045;52.986;6.014;2023-07-31T05:46:03;16.50;99.90
56162;DHT22;42045;52.986;6.014;2023-07-31T05:48:29;16.70;99.90
56162;DHT22;42045;52.986;6.014;2023-07-31T05:50:55;16.70;99.90
56162;DHT22;42045;52.986;6.014;2023-07-31T05:53:20;16.80;99.90
56162;DHT22;42045;52.986;6.014;2023-07-31T05:55:46;16.90;99.90
56162;DHT22;42045;52.986;6.014;2023-07-31T05:58:12;17.00;99.90
56162;DHT22;42045;52.986;6.014;2023-07-31T06:00:37;17.10;99.90
56162;DHT22;42045;52.986;6.014;2023-07-31T06:03:03;17.10;99.90
56162;DHT22;42045;52.986;6.014;2023-07-31T06:05:29;17.10;99.90
56162;DHT22;42045;52.986;6.014;2023-07-31T06:07:56;17.10;99.90
56162;DHT22;42045;52.986;6.014;2023-07-31T06:10:22;17.10;99.90
56162;DHT22;42045;52.986;6.014;2023-07-31T06:12:47;17.10;99.90
56162;DHT22;42045;52.986;6.014;2023-07-31T06:15:13;17.20;99.90
56162;DHT22;42045;52.986;6.014;2023-07-31T06:17:39;17.20;99.90
56162;DHT22;42045;52.986;6.014;2023-07-31T06:20:06;17.20;99.90
56162;DHT22;42045;52.986;6.014;2023-07-31T06:22:32;17.30;99.90
56162;DHT22;42045;52.986;6.014;2023-07-31T06:24:58;17.30;99.90
56162;DHT22;42045;52.986;6.014;2023-07-31T06:27:24;17.40;99.90
56162;DHT22;42045;52.986;6.014;2023-07-31T06:29:50;17.40;99.90
56162;DHT22;42045;52.986;6.014;2023-07-31T06:32:15;17.50;99.90
56162;DHT22;42045;52.986;6.014;2023-07-31T06:34:41;17.50;99.90
56162;DHT22;42045;52.986;6.014;2023-07-31T06:37:07;17.60;99.90
56162;DHT22;42045;52.986;6.014;2023-07-31T06:39:32;17.70;99.90
56162;DHT22;42045;52.986;6.014;2023-07-31T06:41:58;17.70;99.90
56162;DHT22;42045;52.986;6.014;2023-07-31T06:44:23;17.80;99.90
56162;DHT22;42045;52.986;6.014;2023-07-31T06:46:50;17.70;99.90
56162;DHT22;42045;52.986;6.014;2023-07-31T06:49:16;17.70;99.90
56162;DHT22;42045;52.986;6.014;2023-07-31T06:51:41;17.60;99.90
56162;DHT22;42045;52.986;6.014;2023-07-31T06:54:08;17.60;99.90
56162;DHT22;42045;52.986;6.014;2023-07-31T06:56:34;17.50;99.90
56162;DHT22;42045;52.986;6.014;2023-07-31T06:58:59;17.50;99.90
56162;DHT22;42045;52.986;6.014;2023-07-31T07:01:25;17.40;99.90
56162;DHT22;42045;52.986;6.014;2023-07-31T07:03:51;17.40;99.90
56162;DHT22;42045;52.986;6.014;2023-07-31T07:06:17;17.30;99.90
56162;DHT22;42045;52.986;6.014;2023-07-31T07:08:43;17.20;99.90
56162;DHT22;42045;52.986;6.014;2023-07-31T07:11:09;17.30;99.90
56162;DHT22;42045;52.986;6.014;2023-07-31T07:13:34;17.20;99.90
56162;DHT22;42045;52.986;6.014;2023-07-31T07:16:00;17.20;99.90
56162;DHT22;42045;52.986;6.014;2023-07-31T07:18:26;17.10;99.90
56162;DHT22;42045;52.986;6.014;2023-07-31T07:20:52;17.10;99.90
56162;DHT22;42045;52.986;6.014;2023-07-31T07:23:19;17.00;99.90
56162;DHT22;42045;52.986;6.014;2023-07-31T07:25:45;17.00;99.90
56162;DHT22;42045;52.986;6.014;2023-07-31T07:28:11;16.90;99.90
56162;DHT22;42045;52.986;6.014;2023-07-31T07:30:37;17.00;99.90
56162;DHT22;42045;52.986;6.014;2023-07-31T07:33:03;17.00;99.90
56162;DHT22;42045;52.986;6.014;2023-07-31T07:35:28;16.90;99.90
56162;DHT22;42045;52.986;6.014;2023-07-31T07:37:54;16.90;99.90
56162;DHT22;42045;52.986;6.014;2023-07-31T07:40:20;17.00;99.90
56162;DHT22;42045;52.986;6.014;2023-07-31T07:42:46;16.90;99.90
56162;DHT22;42045;52.986;6.014;2023-07-31T07:45:12;16.90;99.90
56162;DHT22;42045;52.986;6.014;2023-07-31T07:47:41;16.90;99.90
56162;DHT22;42045;52.986;6.014;2023-07-31T07:50:08;16.90;99.90
56162;DHT22;42045;52.986;6.014;2023-07-31T07:52:33;17.00;99.90
56162;DHT22;42045;52.986;6.014;2023-07-31T07:54:59;16.90;99.90
56162;DHT22;42045;52.986;6.014;2023-07-31T07:57:26;16.90;99.90
56162;DHT22;42045;52.986;6.014;2023-07-31T07:59:51;17.00;99.90
56162;DHT22;42045;52.986;6.014;2023-07-31T08:02:17;17.00;99.90
56162;DHT22;42045;52.986;6.014;2023-07-31T08:04:43;17.00;99.90
56162;DHT22;42045;52.986;6.014;2023-07-31T08:07:11;17.10;99.90
56162;DHT22;42045;52.986;6.014;2023-07-31T08:09:37;17.10;99.90
56162;DHT22;42045;52.986;6.014;2023-07-31T08:12:04;17.20;99.90
56162;DHT22;42045;52.986;6.014;2023-07-31T08:14:29;17.20;99.90
56162;DHT22;42045;52.986;6.014;2023-07-31T08:16:55;17.10;99.90
56162;DHT22;42045;52.986;6.014;2023-07-31T08:19:21;17.00;99.90
56162;DHT22;42045;52.986;6.014;2023-07-31T08:21:47;17.00;99.90
56162;DHT22;42045;52.986;6.014;2023-07-31T08:24:12;17.00;99.90
56162;DHT22;42045;52.986;6.014;2023-07-31T08:26:38;17.00;99.90
56162;DHT22;42045;52.986;6.014;2023-07-31T08:29:04;17.00;99.90
56162;DHT22;42045;52.986;6.014;2023-07-31T08:31:29;17.20;99.90
56162;DHT22;42045;52.986;6.014;2023-07-31T08:33:56;17.20;99.90
56162;DHT22;42045;52.986;6.014;2023-07-31T08:36:21;17.20;99.90
56162;DHT22;42045;52.986;6.014;2023-07-31T08:38:47;17.20;99.90
56162;DHT22;42045;52.986;6.014;2023-07-31T08:41:13;17.30;99.90
56162;DHT22;42045;52.986;6.014;2023-07-31T08:43:39;17.40;99.90
56162;DHT22;42045;52.986;6.014;2023-07-31T08:46:05;17.20;99.90
56162;DHT22;42045;52.986;6.014;2023-07-31T08:48:31;17.40;99.90
56162;DHT22;42045;52.986;6.014;2023-07-31T08:50:57;17.30;99.90
56162;DHT22;42045;52.986;6.014;2023-07-31T08:53:23;17.60;99.90
56162;DHT22;42045;52.986;6.014;2023-07-31T08:55:50;17.50;99.90
56162;DHT22;42045;52.986;6.014;2023-07-31T08:58:18;17.50;99.90
56162;DHT22;42045;52.986;6.014;2023-07-31T09:00:46;17.60;99.90
56162;DHT22;42045;52.986;6.014;2023-07-31T09:03:17;17.60;99.90
56162;DHT22;42045;52.986;6.014;2023-07-31T09:05:45;17.70;99.90
56162;DHT22;42045;52.986;6.014;2023-07-31T09:08:14;17.80;99.90
56162;DHT22;42045;52.986;6.014;2023-07-31T09:10:44;17.70;99.90
56162;DHT22;42045;52.986;6.014;2023-07-31T09:13:15;17.80;99.90
56162;DHT22;42045;52.986;6.014;2023-07-31T09:15:43;17.90;99.90
56162;DHT22;42045;52.986;6.014;2023-07-31T09:18:09;17.80;99.90
56162;DHT22;42045;52.986;6.014;2023-07-31T09:20:36;17.90;99.90
56162;DHT22;42045;52.986;6.014;2023-07-31T09:23:08;18.00;99.90
56162;DHT22;42045;52.986;6.014;2023-07-31T09:25:34;18.10;99.90
56162;DHT22;42045;52.986;6.014;2023-07-31T09:28:04;18.20;99.90
56162;DHT22;42045;52.986;6.014;2023-07-31T09:30:30;18.30;99.90
56162;DHT22;42045;52.986;6.014;2023-07-31T09:33:04;18.50;99.90
56162;DHT22;42045;52.986;6.014;2023-07-31T09:35:33;18.70;99.90
56162;DHT22;42045;52.986;6.014;2023-07-31T09:38:08;18.90;99.90
56162;DHT22;42045;52.986;6.014;2023-07-31T09:40:40;18.70;99.90
56162;DHT22;42045;52.986;6.014;2023-07-31T09:43:07;18.80;99.90
56162;DHT22;42045;52.986;6.014;2023-07-31T09:45:35;18.90;99.90
56162;DHT22;42045;52.986;6.014;2023-07-31T09:48:13;18.90;99.90
56162;DHT22;42045;52.986;6.014;2023-07-31T09:50:43;19.30;99.90
56162;DHT22;42045;52.986;6.014;2023-07-31T09:53:09;19.40;99.90
56162;DHT22;42045;52.986;6.014;2023-07-31T09:55:36;19.50;99.90
56162;DHT22;42045;52.986;6.014;2023-07-31T09:58:06;19.60;99.90
56162;DHT22;42045;52.986;6.014;2023-07-31T10:00:33;19.80;99.90
56162;DHT22;42045;52.986;6.014;2023-07-31T10:03:00;20.00;99.90
56162;DHT22;42045;52.986;6.014;2023-07-31T10:05:46;20.10;99.90
56162;DHT22;42045;52.986;6.014;2023-07-31T10:08:15;20.00;99.90
56162;DHT22;42045;52.986;6.014;2023-07-31T10:10:43;19.90;99.90
56162;DHT22;42045;52.986;6.014;2023-07-31T10:13:09;19.70;99.90
56162;DHT22;42045;52.986;6.014;2023-07-31T10:15:35;19.70;99.90
56162;DHT22;42045;52.986;6.014;2023-07-31T10:18:02;19.70;99.90
56162;DHT22;42045;52.986;6.014;2023-07-31T10:20:29;19.90;99.90
56162;DHT22;42045;52.986;6.014;2023-07-31T10:22:56;20.10;99.90
56162;DHT22;42045;52.986;6.014;2023-07-31T10:25:22;20.30;99.90
56162;DHT22;42045;52.986;6.014;2023-07-31T10:27:49;20.30;99.90
56162;DHT22;42045;52.986;6.014;2023-07-31T10:30:17;20.10;99.90
56162;DHT22;42045;52.986;6.014;2023-07-31T10:32:44;19.90;99.90
56162;DHT22;42045;52.986;6.014;2023-07-31T10:35:11;19.70;99.90
56162;DHT22;42045;52.986;6.014;2023-07-31T10:37:42;19.70;99.90
56162;DHT22;42045;52.986;6.014;2023-07-31T10:40:12;19.60;99.90
56162;DHT22;42045;52.986;6.014;2023-07-31T10:42:56;19.50;99.90
56162;DHT22;42045;52.986;6.014;2023-07-31T10:45:36;19.50;99.90
56162;DHT22;42045;52.986;6.014;2023-07-31T10:48:06;19.30;99.90
56162;DHT22;42045;52.986;6.014;2023-07-31T10:50:37;19.30;99.90
56162;DHT22;42045;52.986;6.014;2023-07-31T10:53:03;19.20;99.90
56162;DHT22;42045;52.986;6.014;2023-07-31T10:55:42;19.00;99.90
56162;DHT22;42045;52.986;6.014;2023-07-31T10:58:13;19.00;99.90
56162;DHT22;42045;52.986;6.014;2023-07-31T11:00:41;18.90;99.90
56162;DHT22;42045;52.986;6.014;2023-07-31T11:03:07;19.00;99.90
56162;DHT22;42045;52.986;6.014;2023-07-31T11:10:47;19.60;99.90
56162;DHT22;42045;52.986;6.014;2023-07-31T11:13:13;19.80;99.90
56162;DHT22;42045;52.986;6.014;2023-07-31T11:15:39;20.10;99.90
56162;DHT22;42045;52.986;6.014;2023-07-31T11:18:05;20.30;99.90
56162;DHT22;42045;52.986;6.014;2023-07-31T11:20:34;20.40;99.90
56162;DHT22;42045;52.986;6.014;2023-07-31T11:23:02;20.40;99.90
56162;DHT22;42045;52.986;6.014;2023-07-31T11:25:29;20.70;99.90
56162;DHT22;42045;52.986;6.014;2023-07-31T11:27:56;20.70;99.90
56162;DHT22;42045;52.986;6.014;2023-07-31T11:30:22;20.60;99.90
56162;DHT22;42045;52.986;6.014;2023-07-31T11:32:49;20.40;99.90
56162;DHT22;42045;52.986;6.014;2023-07-31T11:35:15;20.20;99.90
56162;DHT22;42045;52.986;6.014;2023-07-31T11:37:42;20.00;99.90
56162;DHT22;42045;52.986;6.014;2023-07-31T11:40:08;20.20;99.90
56162;DHT22;42045;52.986;6.014;2023-07-31T11:42:35;20.10;99.90
56162;DHT22;42045;52.986;6.014;2023-07-31T11:45:10;20.10;99.90
56162;DHT22;42045;52.986;6.014;2023-07-31T11:47:37;20.00;99.90
56162;DHT22;42045;52.986;6.014;2023-07-31T11:50:04;20.00;99.90
56162;DHT22;42045;52.986;6.014;2023-07-31T11:52:34;20.10;99.90
56162;DHT22;42045;52.986;6.014;2023-07-31T11:55:01;20.20;99.90
56162;DHT22;42045;52.986;6.014;2023-07-31T11:57:28;20.30;99.90
56162;DHT22;42045;52.986;6.014;2023-07-31T11:59:55;20.20;99.90
56162;DHT22;42045;52.986;6.014;2023-07-31T12:02:21;20.00;99.90
56162;DHT22;42045;52.986;6.014;2023-07-31T12:04:47;20.10;99.90
56162;DHT22;42045;52.986;6.014;2023-07-31T12:07:13;20.00;99.90
56162;DHT22;42045;52.986;6.014;2023-07-31T12:09:53;20.10;99.90
56162;DHT22;42045;52.986;6.014;2023-07-31T12:12:21;20.00;99.90
56162;DHT22;42045;52.986;6.014;2023-07-31T12:14:47;19.90;99.90
56162;DHT22;42045;52.986;6.014;2023-07-31T12:17:14;19.90;99.90
56162;DHT22;42045;52.986;6.014;2023-07-31T12:19:40;19.70;99.90
56162;DHT22;42045;52.986;6.014;2023-07-31T12:22:15;19.70;99.90
56162;DHT22;42045;52.986;6.014;2023-07-31T12:24:43;19.80;99.90
56162;DHT22;42045;52.986;6.014;2023-07-31T12:27:13;19.80;99.90
56162;DHT22;42045;52.986;6.014;2023-07-31T12:29:40;19.90;99.90
56162;DHT22;42045;52.986;6.014;2023-07-31T12:32:23;20.10;99.90
56162;DHT22;42045;52.986;6.014;2023-07-31T12:34:54;20.10;99.90
56162;DHT22;42045;52.986;6.014;2023-07-31T12:37:21;20.20;99.90
56162;DHT22;42045;52.986;6.014;2023-07-31T12:39:47;20.20;99.90
56162;DHT22;42045;52.986;6.014;2023-07-31T12:42:13;20.10;99.90
56162;DHT22;42045;52.986;6.014;2023-07-31T12:44:38;20.10;99.90
56162;DHT22;42045;52.986;6.014;2023-07-31T12:47:04;20.10;99.90
56162;DHT22;42045;52.986;6.014;2023-07-31T12:49:30;20.20;99.90
56162;DHT22;42045;52.986;6.014;2023-07-31T12:51:55;20.20;99.90
56162;DHT22;42045;52.986;6.014;2023-07-31T12:54:21;20.10;99.90
56162;DHT22;42045;52.986;6.014;2023-07-31T12:56:47;20.10;99.90
56162;DHT22;42045;52.986;6.014;2023-07-31T12:59:12;20.00;99.90
56162;DHT22;42045;52.986;6.014;2023-07-31T13:01:39;20.00;99.90
56162;DHT22;42045;52.986;6.014;2023-07-31T13:04:05;20.00;99.90
56162;DHT22;42045;52.986;6.014;2023-07-31T13:06:30;20.10;99.90
56162;DHT22;42045;52.986;6.014;2023-07-31T13:08:56;20.10;99.90
56162;DHT22;42045;52.986;6.014;2023-07-31T13:11:22;20.10;99.90
56162;DHT22;42045;52.986;6.014;2023-07-31T13:13:47;20.30;99.90
56162;DHT22;42045;52.986;6.014;2023-07-31T13:16:13;20.30;99.90
56162;DHT22;42045;52.986;6.014;2023-07-31T13:18:39;20.20;99.90
56162;DHT22;42045;52.986;6.014;2023-07-31T13:21:04;20.20;99.90
56162;DHT22;42045;52.986;6.014;2023-07-31T13:23:30;20.20;99.90
56162;DHT22;42045;52.986;6.014;2023-07-31T13:25:55;20.10;99.90
56162;DHT22;42045;52.986;6.014;2023-07-31T13:28:21;20.00;99.90
56162;DHT22;42045;52.986;6.014;2023-07-31T13:30:47;19.90;99.90
56162;DHT22;42045;52.986;6.014;2023-07-31T13:33:12;19.90;99.90
56162;DHT22;42045;52.986;6.014;2023-07-31T13:35:38;19.90;99.90
56162;DHT22;42045;52.986;6.014;2023-07-31T13:38:04;19.80;99.90
56162;DHT22;42045;52.986;6.014;2023-07-31T13:40:31;19.90;99.90
56162;DHT22;42045;52.986;6.014;2023-07-31T13:42:56;19.90;99.90
56162;DHT22;42045;52.986;6.014;2023-07-31T13:45:22;19.80;99.90
56162;DHT22;42045;52.986;6.014;2023-07-31T13:47:50;19.70;99.90
56162;DHT22;42045;52.986;6.014;2023-07-31T13:50:15;19.70;99.90
56162;DHT22;42045;52.986;6.014;2023-07-31T13:52:42;19.50;99.90
56162;DHT22;42045;52.986;6.014;2023-07-31T13:55:07;19.70;99.90
56162;DHT22;42045;52.986;6.014;2023-07-31T13:57:33;19.80;99.90
56162;DHT22;42045;52.986;6.014;2023-07-31T14:00:00;19.90;99.90
56162;DHT22;42045;52.986;6.014;2023-07-31T14:02:25;20.00;99.90
56162;DHT22;42045;52.986;6.014;2023-07-31T14:04:51;20.10;99.90
56162;DHT22;42045;52.986;6.014;2023-07-31T14:07:17;20.20;99.90
56162;DHT22;42045;52.986;6.014;2023-07-31T14:09:43;20.20;99.90
56162;DHT22;42045;52.986;6.014;2023-07-31T14:12:09;20.20;99.90
56162;DHT22;42045;52.986;6.014;2023-07-31T14:14:34;20.20;99.90
56162;DHT22;42045;52.986;6.014;2023-07-31T14:17:00;20.20;99.90
56162;DHT22;42045;52.986;6.014;2023-07-31T14:19:25;20.20;99.90
56162;DHT22;42045;52.986;6.014;2023-07-31T14:21:51;20.10;99.90
56162;DHT22;42045;52.986;6.014;2023-07-31T14:24:17;20.20;99.90
56162;DHT22;42045;52.986;6.014;2023-07-31T14:26:42;20.10;99.90
56162;DHT22;42045;52.986;6.014;2023-07-31T14:29:08;20.10;99.90
56162;DHT22;42045;52.986;6.014;2023-07-31T14:31:34;20.10;99.90
56162;DHT22;42045;52.986;6.014;2023-07-31T14:33:59;20.00;99.90
56162;DHT22;42045;52.986;6.014;2023-07-31T14:36:25;19.90;99.90
56162;DHT22;42045;52.986;6.014;2023-07-31T14:38:51;20.00;99.90
56162;DHT22;42045;52.986;6.014;2023-07-31T14:41:17;19.90;99.90
56162;DHT22;42045;52.986;6.014;2023-07-31T14:43:42;19.90;99.90
56162;DHT22;42045;52.986;6.014;2023-07-31T14:46:08;19.80;99.90
56162;DHT22;42045;52.986;6.014;2023-07-31T14:48:34;19.80;99.90
56162;DHT22;42045;52.986;6.014;2023-07-31T14:51:00;19.80;99.90
56162;DHT22;42045;52.986;6.014;2023-07-31T14:53:25;19.80;99.90
56162;DHT22;42045;52.986;6.014;2023-07-31T14:55:51;19.80;99.90
56162;DHT22;42045;52.986;6.014;2023-07-31T14:58:17;19.70;99.90
56162;DHT22;42045;52.986;6.014;2023-07-31T15:00:43;19.70;99.90
56162;DHT22;42045;52.986;6.014;2023-07-31T15:03:09;19.60;99.90
56162;DHT22;42045;52.986;6.014;2023-07-31T15:05:35;19.60;99.90
56162;DHT22;42045;52.986;6.014;2023-07-31T15:08:00;19.60;99.90
56162;DHT22;42045;52.986;6.014;2023-07-31T15:10:26;19.50;99.90
56162;DHT22;42045;52.986;6.014;2023-07-31T15:12:52;19.50;99.90
56162;DHT22;42045;52.986;6.014;2023-07-31T15:15:17;19.60;99.90
56162;DHT22;42045;52.986;6.014;2023-07-31T15:17:43;19.70;99.90
56162;DHT22;42045;52.986;6.014;2023-07-31T15:20:10;19.60;99.90
56162;DHT22;42045;52.986;6.014;2023-07-31T15:22:35;19.70;99.90
56162;DHT22;42045;52.986;6.014;2023-07-31T15:25:01;19.70;99.90
56162;DHT22;42045;52.986;6.014;2023-07-31T15:27:27;19.70;99.90
56162;DHT22;42045;52.986;6.014;2023-07-31T15:29:52;19.70;99.90
56162;DHT22;42045;52.986;6.014;2023-07-31T15:32:19;19.70;99.90
56162;DHT22;42045;52.986;6.014;2023-07-31T15:34:44;19.70;99.90
56162;DHT22;42045;52.986;6.014;2023-07-31T15:37:10;19.70;99.90
56162;DHT22;42045;52.986;6.014;2023-07-31T15:39:36;19.80;99.90